createdAt,value
2022-10-02T00:01:33.740Z,14.27
2022-10-02T00:04:02.695Z,14.23
2022-10-02T00:06:39.125Z,14.19
2022-10-02T00:09:11.457Z,14.60
2022-10-02T00:11:44.703Z,14.39
2022-10-02T00:14:17.342Z,13.93
2022-10-02T00:16:47.761Z,14.12
2022-10-02T00:19:18.590Z,14.25
2022-10-02T00:21:56.477Z,14.20
2022-10-02T00:24:28.795Z,13.52
2022-10-02T00:27:04.824Z,14.03
2022-10-02T00:29:40.943Z,13.74
2022-10-02T00:32:17.925Z,13.75
2022-10-02T00:35:20.686Z,14.25
2022-10-02T00:37:58.074Z,13.97
2022-10-02T00:40:40.484Z,13.92
2022-10-02T00:43:19.669Z,13.64
2022-10-02T00:46:00.533Z,14.02
2022-10-02T00:48:50.824Z,13.98
2022-10-02T00:51:36.576Z,13.67
2022-10-02T00:54:20.283Z,13.75
2022-10-02T00:56:58.589Z,13.94
2022-10-02T00:59:44.739Z,13.65
2022-10-02T01:02:36.215Z,13.80
2022-10-02T01:05:07.609Z,13.97
2022-10-02T01:07:38.843Z,13.96
2022-10-02T01:10:08.412Z,13.91
2022-10-02T01:12:37.478Z,14.06
2022-10-02T01:15:12.792Z,13.86
2022-10-02T01:17:43.366Z,14.00
2022-10-02T01:20:17.703Z,14.02
2022-10-02T01:22:50.261Z,13.40
2022-10-02T01:25:19.397Z,13.32
2022-10-02T01:27:47.871Z,13.63
2022-10-02T01:30:19.075Z,13.74
2022-10-02T01:32:51.226Z,13.64
2022-10-02T01:35:20.849Z,13.78
2022-10-02T01:37:51.296Z,13.46
2022-10-02T01:40:29.695Z,13.68
2022-10-02T01:43:01.860Z,13.31
2022-10-02T01:45:49.848Z,13.79
2022-10-02T01:48:23.781Z,13.65
2022-10-02T01:51:08.633Z,13.53
2022-10-02T01:53:44.613Z,13.41
2022-10-02T01:56:20.142Z,13.78
2022-10-02T01:58:56.777Z,13.56
2022-10-02T02:01:40.620Z,13.72
2022-10-02T02:04:21.487Z,13.61
2022-10-02T02:06:57.660Z,13.45
2022-10-02T02:09:32.330Z,13.91
2022-10-02T02:12:09.301Z,13.65
2022-10-02T02:14:40.656Z,13.47
2022-10-02T02:17:13.521Z,13.58
2022-10-02T02:19:47.913Z,13.46
2022-10-02T02:22:21.909Z,13.52
2022-10-02T02:24:56.329Z,13.53
2022-10-02T02:27:29.611Z,13.45
2022-10-02T02:30:03.711Z,13.37
2022-10-02T02:32:36.990Z,13.67
2022-10-02T02:35:09.196Z,13.58
2022-10-02T02:37:40.915Z,13.74
2022-10-02T02:40:13.370Z,13.70
2022-10-02T02:42:47.187Z,13.52
2022-10-02T02:45:19.928Z,13.78
2022-10-02T02:47:51.490Z,14.15
2022-10-02T02:50:24.122Z,14.15
2022-10-02T02:52:58.475Z,14.07
2022-10-02T02:55:32.101Z,13.97
2022-10-02T02:58:06.411Z,13.91
2022-10-02T03:00:34.452Z,13.82
2022-10-02T03:03:02.248Z,13.77
2022-10-02T03:05:30.891Z,13.63
2022-10-02T03:08:02.030Z,13.77
2022-10-02T03:10:41.353Z,13.80
2022-10-02T03:13:24.891Z,13.49
2022-10-02T03:16:06.092Z,13.63
2022-10-02T03:18:48.221Z,13.74
2022-10-02T03:21:19.948Z,13.52
2022-10-02T03:24:02.301Z,13.38
2022-10-02T03:26:36.623Z,14.01
2022-10-02T03:29:11.755Z,13.80
2022-10-02T03:31:41.117Z,13.62
2022-10-02T03:34:09.562Z,13.76
2022-10-02T03:36:38.337Z,13.65
2022-10-02T03:39:25.765Z,13.68
2022-10-02T03:41:54.874Z,13.49
2022-10-02T03:44:24.010Z,13.72
2022-10-02T03:46:51.850Z,14.00
2022-10-02T03:49:19.581Z,13.46
2022-10-02T03:51:47.317Z,13.39
2022-10-02T03:54:19.103Z,13.64
2022-10-02T03:56:54.373Z,13.66
2022-10-02T03:59:34.501Z,13.84
2022-10-02T04:02:07.217Z,13.48
2022-10-02T04:04:45.452Z,13.49
2022-10-02T04:07:20.358Z,13.61
2022-10-02T04:09:55.624Z,13.49
2022-10-02T04:12:29.213Z,13.74
2022-10-02T04:15:05.083Z,13.72
2022-10-02T04:17:43.932Z,13.91
2022-10-02T04:20:18.834Z,13.75
2022-10-02T04:22:52.691Z,13.47
2022-10-02T04:25:23.967Z,13.61
2022-10-02T04:27:57.755Z,13.74
2022-10-02T04:30:27.243Z,13.66
2022-10-02T04:32:55.165Z,13.75
2022-10-02T04:35:30.328Z,13.34
2022-10-02T04:38:30.190Z,13.52
2022-10-02T04:41:12.394Z,13.40
2022-10-02T04:43:55.523Z,13.14
2022-10-02T04:46:50.742Z,13.48
2022-10-02T04:49:39.685Z,13.54
2022-10-02T04:52:25.020Z,13.31
2022-10-02T04:55:03.576Z,13.10
2022-10-02T04:57:54.247Z,13.49
2022-10-02T05:00:24.950Z,13.33
2022-10-02T05:03:10.442Z,13.21
2022-10-02T05:05:53.022Z,13.15
2022-10-02T05:08:39.319Z,13.14
2022-10-02T05:11:21.952Z,13.28
2022-10-02T05:14:06.364Z,13.30
2022-10-02T05:16:49.893Z,13.42
2022-10-02T05:19:41.322Z,13.17
2022-10-02T05:22:25.504Z,13.26
2022-10-02T05:25:06.650Z,13.60
2022-10-02T05:27:56.792Z,13.49
2022-10-02T05:30:25.525Z,13.34
2022-10-02T05:33:17.349Z,13.38
2022-10-02T05:36:10.562Z,13.31
2022-10-02T05:38:57.512Z,13.51
2022-10-02T05:41:34.924Z,13.45
2022-10-02T05:44:08.602Z,13.58
2022-10-02T05:46:41.639Z,13.40
2022-10-02T05:49:16.515Z,13.21
2022-10-02T05:51:53.666Z,13.15
2022-10-02T05:54:35.627Z,13.38
2022-10-02T05:57:12.595Z,13.35
2022-10-02T05:59:48.851Z,13.64
2022-10-02T06:02:25.394Z,13.67
2022-10-02T06:05:02.841Z,13.41
2022-10-02T06:07:33.122Z,13.85
2022-10-02T06:10:07.155Z,14.15
2022-10-02T06:12:39.535Z,14.04
2022-10-02T06:15:16.681Z,14.33
2022-10-02T06:17:50.063Z,14.25
2022-10-02T06:20:27.132Z,14.03
2022-10-02T06:23:02.669Z,14.33
2022-10-02T06:25:39.276Z,14.42
2022-10-02T06:28:14.663Z,14.45
2022-10-02T06:30:47.250Z,14.49
2022-10-02T06:33:20.002Z,14.43
2022-10-02T06:36:09.090Z,14.37
2022-10-02T06:38:52.104Z,14.50
2022-10-02T06:41:30.857Z,14.62
2022-10-02T06:44:21.878Z,14.54
2022-10-02T06:47:04.300Z,14.67
2022-10-02T06:49:42.549Z,14.84
2022-10-02T06:52:27.093Z,14.59
2022-10-02T06:55:10.575Z,14.54
2022-10-02T06:58:01.207Z,14.81
2022-10-02T07:00:29.786Z,15.11
2022-10-02T07:03:19.986Z,15.13
2022-10-02T07:06:11.503Z,15.08
2022-10-02T07:08:55.464Z,14.69
2022-10-02T07:11:32.690Z,14.71
2022-10-02T07:14:23.081Z,14.99
2022-10-02T07:17:06.877Z,14.99
2022-10-02T07:19:47.800Z,15.16
2022-10-02T07:22:44.695Z,15.20
2022-10-02T07:25:28.781Z,15.11
2022-10-02T07:28:08.875Z,15.44
2022-10-02T07:30:44.988Z,15.20
2022-10-02T07:33:29.235Z,15.16
2022-10-02T07:36:04.553Z,15.86
2022-10-02T07:38:54.516Z,15.50
2022-10-02T07:41:48.425Z,15.40
2022-10-02T07:44:32.146Z,16.00
2022-10-02T07:47:09.671Z,15.57
2022-10-02T07:49:51.864Z,15.70
2022-10-02T07:52:28.465Z,15.84
2022-10-02T07:55:07.331Z,15.94
2022-10-02T07:57:41.768Z,15.73
2022-10-02T08:00:15.985Z,16.24
2022-10-02T08:02:52.683Z,16.60
2022-10-02T08:05:23.539Z,16.99
2022-10-02T08:07:55.276Z,16.46
2022-10-02T08:10:26.816Z,16.54
2022-10-02T08:13:05.951Z,16.89
2022-10-02T08:15:38.232Z,17.46
2022-10-02T08:18:33.049Z,17.45
2022-10-02T08:21:02.877Z,17.34
2022-10-02T08:23:37.614Z,16.60
2022-10-02T08:26:10.892Z,16.13
2022-10-02T08:28:44.833Z,16.49
2022-10-02T08:31:15.991Z,17.24
2022-10-02T08:33:44.155Z,17.35
2022-10-02T08:36:48.145Z,16.75
2022-10-02T08:39:35.397Z,16.21
2022-10-02T08:42:29.007Z,17.18
2022-10-02T08:45:16.421Z,17.31
2022-10-02T08:48:20.757Z,18.18
2022-10-02T08:51:28.095Z,17.53
2022-10-02T08:54:26.765Z,17.50
2022-10-02T08:57:19.451Z,18.10
2022-10-02T09:00:05.220Z,18.32
2022-10-02T09:03:19.079Z,18.23
2022-10-02T09:06:13.073Z,18.77
2022-10-02T09:09:18.837Z,17.97
2022-10-02T09:12:33.896Z,18.14
2022-10-02T09:15:13.537Z,17.46
2022-10-02T09:17:50.222Z,17.98
2022-10-02T09:21:01.334Z,18.85
2022-10-02T09:24:09.889Z,18.53
2022-10-02T09:27:00.399Z,18.70
2022-10-02T09:29:56.060Z,18.00
2022-10-02T09:32:57.633Z,18.75
2022-10-02T09:36:06.494Z,18.54
2022-10-02T09:38:57.963Z,18.94
2022-10-02T09:42:03.915Z,19.31
2022-10-02T09:45:17.381Z,20.36
2022-10-02T09:48:43.088Z,19.72
2022-10-02T09:51:41.843Z,19.76
2022-10-02T09:54:48.056Z,19.13
2022-10-02T09:57:54.315Z,19.12
2022-10-02T10:00:27.696Z,19.05
2022-10-02T10:03:36.450Z,19.31
2022-10-02T10:06:50.346Z,20.25
2022-10-02T10:09:56.560Z,20.47
2022-10-02T10:12:58.530Z,20.18
2022-10-02T10:15:50.296Z,19.95
2022-10-02T10:18:36.359Z,21.47
2022-10-02T10:21:26.809Z,20.40
2022-10-02T10:24:26.787Z,21.13
2022-10-02T10:27:17.946Z,20.50
2022-10-02T10:30:10.219Z,19.98
2022-10-02T10:33:04.705Z,19.26
2022-10-02T10:35:52.470Z,19.11
2022-10-02T10:38:49.565Z,17.98
2022-10-02T10:42:01.542Z,19.49
2022-10-02T10:44:59.597Z,19.33
2022-10-02T10:47:52.531Z,19.62
2022-10-02T10:50:38.584Z,18.87
2022-10-02T10:53:31.489Z,18.37
2022-10-02T10:56:21.820Z,18.93
2022-10-02T10:59:16.704Z,19.63
2022-10-02T11:02:00.604Z,19.39
2022-10-02T11:04:54.553Z,18.54
2022-10-02T11:07:42.871Z,19.30
2022-10-02T11:10:23.898Z,19.52
2022-10-02T11:13:16.083Z,18.65
2022-10-02T11:16:07.469Z,18.73
2022-10-02T11:18:50.487Z,20.77
2022-10-02T11:21:55.164Z,20.45
2022-10-02T11:24:38.417Z,19.79
2022-10-02T11:27:24.448Z,20.51
2022-10-02T11:30:14.233Z,18.97
2022-10-02T11:32:58.061Z,19.97
2022-10-02T11:35:33.348Z,20.31
2022-10-02T11:38:19.516Z,19.99
2022-10-02T11:41:15.793Z,21.54
2022-10-02T11:44:06.211Z,19.98
2022-10-02T11:47:07.232Z,18.88
2022-10-02T11:50:14.744Z,18.42
2022-10-02T11:53:12.693Z,18.54
2022-10-02T11:55:57.033Z,18.81
2022-10-02T11:58:45.435Z,19.12
2022-10-02T12:01:21.177Z,19.52
2022-10-02T12:04:05.119Z,18.97
2022-10-02T12:06:51.539Z,19.10
2022-10-02T12:09:31.089Z,20.04
2022-10-02T12:12:14.787Z,20.15
2022-10-02T12:14:49.441Z,19.73
2022-10-02T12:17:53.174Z,19.63
2022-10-02T12:20:46.811Z,19.29
2022-10-02T12:23:47.313Z,19.15
2022-10-02T12:26:46.851Z,19.30
2022-10-02T12:29:25.229Z,20.74
2022-10-02T12:32:00.298Z,19.13
2022-10-02T12:34:39.613Z,20.28
2022-10-02T12:37:16.486Z,19.65
2022-10-02T12:39:55.712Z,20.39
2022-10-02T12:42:46.788Z,20.72
2022-10-02T12:45:48.684Z,22.23
2022-10-02T12:48:29.330Z,22.51
2022-10-02T12:51:20.891Z,22.53
2022-10-02T12:54:29.921Z,21.97
2022-10-02T12:57:36.646Z,22.13
2022-10-02T13:00:15.377Z,22.99
2022-10-02T13:03:02.064Z,22.67
2022-10-02T13:05:54.260Z,22.98
2022-10-02T13:08:32.568Z,23.17
2022-10-02T13:11:09.026Z,23.45
2022-10-02T13:14:00.525Z,22.80
2022-10-02T13:16:52.935Z,22.15
2022-10-02T13:19:32.683Z,23.64
2022-10-02T13:22:05.462Z,22.77
2022-10-02T13:24:50.281Z,22.79
2022-10-02T13:27:31.403Z,22.52
2022-10-02T13:30:11.234Z,22.14
2022-10-02T13:32:59.237Z,21.34
2022-10-02T13:35:45.954Z,21.84
2022-10-02T13:38:31.141Z,22.03
2022-10-02T13:41:09.673Z,22.14
2022-10-02T13:43:58.609Z,22.94
2022-10-02T13:46:53.541Z,21.84
2022-10-02T13:49:40.048Z,22.54
2022-10-02T13:52:20.918Z,22.56
2022-10-02T13:55:05.590Z,22.02
2022-10-02T13:57:46.087Z,22.77
2022-10-02T14:00:23.626Z,22.20
2022-10-02T14:03:05.917Z,23.04
2022-10-02T14:05:43.278Z,22.52
2022-10-02T14:08:35.410Z,22.62
2022-10-02T14:11:17.075Z,22.14
2022-10-02T14:14:03.346Z,22.36
2022-10-02T14:16:52.519Z,22.70
2022-10-02T14:19:38.388Z,22.35
2022-10-02T14:22:33.799Z,22.05
2022-10-02T14:25:28.397Z,23.30
2022-10-02T14:28:19.237Z,22.11
2022-10-02T14:30:56.339Z,21.78
2022-10-02T14:33:35.945Z,22.14
2022-10-02T14:36:09.391Z,22.30
2022-10-02T14:39:03.424Z,22.56
2022-10-02T14:41:55.265Z,22.22
2022-10-02T14:44:39.793Z,21.29
2022-10-02T14:47:21.401Z,21.28
2022-10-02T14:50:23.728Z,21.75
2022-10-02T14:53:29.610Z,21.80
2022-10-02T14:56:29.823Z,21.53
2022-10-02T14:59:13.508Z,22.21
2022-10-02T15:01:45.928Z,20.85
2022-10-02T15:04:42.698Z,20.48
2022-10-02T15:07:13.171Z,20.53
2022-10-02T15:09:59.206Z,20.96
2022-10-02T15:12:34.850Z,20.38
2022-10-02T15:15:14.034Z,20.45
2022-10-02T15:17:55.236Z,21.16
2022-10-02T15:20:41.080Z,20.60
2022-10-02T15:23:12.440Z,20.63
2022-10-02T15:25:57.234Z,21.24
2022-10-02T15:28:37.215Z,20.48
2022-10-02T15:31:20.468Z,20.78
2022-10-02T15:33:58.595Z,20.42
2022-10-02T15:36:43.899Z,20.17
2022-10-02T15:39:31.611Z,20.29
2022-10-02T15:42:05.931Z,19.76
2022-10-02T15:45:09.681Z,19.27
2022-10-02T15:48:08.130Z,19.48
2022-10-02T15:50:49.674Z,18.24
2022-10-02T15:53:41.128Z,19.01
2022-10-02T15:56:26.279Z,18.35
2022-10-02T15:59:20.272Z,18.41
2022-10-02T16:02:00.721Z,18.41
2022-10-02T16:04:35.572Z,18.82
2022-10-02T16:07:46.339Z,18.29
2022-10-02T16:10:21.745Z,18.41
2022-10-02T16:13:05.994Z,18.11
2022-10-02T16:15:48.235Z,17.98
2022-10-02T16:18:29.993Z,17.72
2022-10-02T16:21:15.832Z,17.77
2022-10-02T16:24:12.018Z,17.74
2022-10-02T16:27:12.120Z,17.23
2022-10-02T16:29:47.670Z,17.27
2022-10-02T16:32:24.384Z,17.12
2022-10-02T16:35:16.630Z,17.05
2022-10-02T16:37:48.400Z,16.82
2022-10-02T16:40:27.227Z,17.05
2022-10-02T16:43:26.336Z,17.14
2022-10-02T16:46:04.470Z,16.80
2022-10-02T16:48:42.579Z,16.77
2022-10-02T16:51:30.098Z,16.45
2022-10-02T16:54:13.713Z,16.43
2022-10-02T16:56:47.711Z,16.51
2022-10-02T16:59:21.376Z,16.26
2022-10-02T17:02:16.505Z,16.55
2022-10-02T17:04:47.580Z,16.14
2022-10-02T17:07:33.553Z,16.39
2022-10-02T17:10:18.800Z,16.64
2022-10-02T17:12:52.689Z,16.28
2022-10-02T17:15:26.475Z,16.24
2022-10-02T17:18:09.977Z,16.39
2022-10-02T17:20:44.511Z,16.11
2022-10-02T17:23:17.677Z,16.20
2022-10-02T17:25:54.465Z,16.15
2022-10-02T17:28:26.736Z,16.12
2022-10-02T17:31:17.600Z,16.43
2022-10-02T17:33:51.665Z,16.19
2022-10-02T17:36:31.687Z,16.41
2022-10-02T17:39:22.208Z,15.96
2022-10-02T17:41:56.909Z,16.11
2022-10-02T17:44:45.316Z,16.26
2022-10-02T17:47:38.779Z,16.36
2022-10-02T17:50:33.580Z,16.35
2022-10-02T17:53:34.487Z,16.27
2022-10-02T17:56:37.308Z,16.55
2022-10-02T17:59:28.025Z,16.31
2022-10-02T18:02:06.249Z,16.15
2022-10-02T18:04:45.825Z,16.19
2022-10-02T18:07:32.712Z,16.29
2022-10-02T18:10:17.331Z,15.97
2022-10-02T18:13:19.441Z,16.04
2022-10-02T18:16:04.653Z,16.23
2022-10-02T18:18:40.513Z,15.98
2022-10-02T18:21:32.289Z,15.91
2022-10-02T18:24:20.667Z,16.13
2022-10-02T18:27:18.348Z,15.85
2022-10-02T18:29:58.614Z,15.84
2022-10-02T18:32:58.501Z,16.11
2022-10-02T18:35:43.153Z,15.86
2022-10-02T18:38:20.917Z,15.95
2022-10-02T18:40:56.385Z,15.58
2022-10-02T18:43:52.612Z,16.05
2022-10-02T18:46:40.535Z,16.04
2022-10-02T18:49:27.303Z,16.16
2022-10-02T18:52:09.304Z,15.91
2022-10-02T18:54:51.018Z,15.96
2022-10-02T18:57:31.722Z,15.83
2022-10-02T19:00:06.607Z,15.94
2022-10-02T19:02:53.767Z,15.86
2022-10-02T19:05:26.585Z,16.02
2022-10-02T19:08:06.768Z,16.03
2022-10-02T19:10:45.003Z,15.77
2022-10-02T19:13:18.043Z,15.75
2022-10-02T19:15:48.793Z,16.10
2022-10-02T19:18:18.898Z,15.82
2022-10-02T19:20:53.452Z,15.77
2022-10-02T19:23:31.922Z,16.01
2022-10-02T19:26:04.928Z,16.05
2022-10-02T19:28:36.634Z,15.77
2022-10-02T19:31:10.465Z,15.90
2022-10-02T19:33:51.209Z,15.94
2022-10-02T19:36:23.482Z,15.93
2022-10-02T19:38:55.047Z,16.06
2022-10-02T19:41:23.793Z,16.00
2022-10-02T19:43:56.395Z,16.08
2022-10-02T19:46:39.220Z,15.42
2022-10-02T19:49:08.780Z,15.83
2022-10-02T19:51:45.844Z,15.80
2022-10-02T19:54:19.861Z,15.62
2022-10-02T19:56:47.895Z,15.60
2022-10-02T19:59:19.274Z,15.45
2022-10-02T20:01:51.722Z,15.65
2022-10-02T20:04:21.824Z,15.38
2022-10-02T20:06:55.055Z,15.73
2022-10-02T20:09:29.377Z,15.71
2022-10-02T20:12:01.887Z,15.85
2022-10-02T20:14:35.109Z,15.83
2022-10-02T20:17:11.196Z,15.72
2022-10-02T20:19:43.841Z,15.81
2022-10-02T20:22:23.961Z,15.77
2022-10-02T20:25:07.427Z,15.64
2022-10-02T20:27:42.680Z,16.17
2022-10-02T20:30:14.755Z,15.80
2022-10-02T20:32:48.237Z,15.79
2022-10-02T20:35:21.510Z,15.57
2022-10-02T20:37:54.062Z,15.84
2022-10-02T20:40:26.310Z,15.30
2022-10-02T20:43:01.477Z,15.53
2022-10-02T20:45:37.823Z,15.44
2022-10-02T20:49:03.010Z,15.51
2022-10-02T20:51:45.032Z,15.69
2022-10-02T20:54:40.537Z,15.61
2022-10-02T21:00:20.734Z,15.75
2022-10-02T21:03:26.408Z,15.88
2022-10-02T21:06:12.767Z,15.70
2022-10-02T21:09:05.195Z,15.17
2022-10-02T21:12:04.901Z,15.35
2022-10-02T21:15:13.813Z,15.48
2022-10-02T21:18:20.587Z,15.29
2022-10-02T21:21:05.459Z,15.74
2022-10-02T21:24:05.385Z,15.67
2022-10-02T21:27:08.999Z,15.38
2022-10-02T21:30:00.026Z,15.71
2022-10-02T21:33:00.938Z,15.48
2022-10-02T21:35:39.830Z,15.15
2022-10-02T21:38:50.903Z,15.15
2022-10-02T21:41:53.796Z,15.06
2022-10-02T21:45:04.318Z,15.08
2022-10-02T21:47:57.760Z,15.24
2022-10-02T21:51:18.378Z,15.47
2022-10-02T21:54:18.931Z,15.26
2022-10-02T21:57:16.597Z,15.37
2022-10-02T22:00:13.990Z,15.33
2022-10-02T22:03:29.191Z,15.43
2022-10-02T22:06:06.969Z,15.52
2022-10-02T22:08:46.354Z,15.22
2022-10-02T22:11:24.006Z,15.32
2022-10-02T22:13:55.947Z,15.60
2022-10-02T22:16:36.387Z,15.85
2022-10-02T22:19:14.777Z,15.55
2022-10-02T22:21:57.837Z,15.60
2022-10-02T22:24:52.886Z,15.47
2022-10-02T22:27:45.454Z,15.04
2022-10-02T22:30:24.008Z,15.28
2022-10-02T22:33:27.116Z,15.63
2022-10-02T22:36:22.058Z,15.35
2022-10-02T22:38:53.168Z,15.46
2022-10-02T22:41:27.212Z,15.29
2022-10-02T22:43:58.458Z,15.15
2022-10-02T22:46:40.898Z,15.26
2022-10-02T22:49:22.330Z,15.60
2022-10-02T22:51:59.977Z,15.55
2022-10-02T22:54:39.328Z,15.35
2022-10-02T22:57:19.248Z,15.56
2022-10-02T22:59:55.331Z,15.45
2022-10-02T23:02:28.979Z,15.41
2022-10-02T23:05:06.470Z,15.68
2022-10-02T23:07:44.517Z,15.81
2022-10-02T23:10:23.690Z,15.46
2022-10-02T23:12:58.725Z,15.39
2022-10-02T23:15:35.815Z,15.79
2022-10-02T23:18:06.415Z,15.54
2022-10-02T23:20:39.604Z,15.62
2022-10-02T23:23:16.402Z,15.62
2022-10-02T23:25:49.495Z,15.48
2022-10-02T23:28:23.696Z,15.94
2022-10-02T23:31:02.751Z,15.67
2022-10-02T23:33:42.262Z,15.64
2022-10-02T23:36:24.153Z,15.17
2022-10-02T23:38:59.382Z,15.54
2022-10-02T23:41:37.474Z,15.49
2022-10-02T23:44:17.362Z,15.08
2022-10-02T23:47:00.308Z,15.46
2022-10-02T23:49:34.956Z,15.39
2022-10-02T23:52:28.125Z,15.58
2022-10-02T23:55:13.995Z,15.50
2022-10-02T23:57:57.658Z,15.52
